Currently 83°F in Pinon Hills, California, USA
83°F
83°F / 64°F
calm
0.00"
Friday, June 22, 2018 7:55 AM PDT

Pinon Hills, California Weather Summary
Last 36 Hours

Temperature Winds Hourly Humidity Dewpoint
Time Report Norm Report Norm Max Gusts Precip. Rpt. Norm Rpt. Norm Pressure
1Fri 07:55 AM  83.3°F  78°F  calm  3 mph  none  0.00"  9%  19%  15°F  30°F  30.00"
2Fri 07:54 AM  83.3°F  78°F  calm  3 mph  none  ----  9%  19%  15°F  30°F  30.00"
Fri 07:00 AM  77.2°F  73°F  calm  2 mph  8 mph  0.00"  10%  23%  13°F  31°F  30.01"
Fri 06:00 AM  65.9°F  67°F  2 mph SW  2 mph  5 mph  0.00"  17%  26%  18°F  30°F  30.00"
3Fri 05:04 AM  63.7°F  67°F  2 mph S  2 mph  4 mph  ----  21%  26%  22°F  30°F  30.00"
Fri 05:00 AM  64.3°F  67°F  2 mph S  2 mph  6 mph  0.00"  19%  26%  19°F  30°F  30.00"
Fri 04:00 AM  66.3°F  68°F  calm  2 mph  7 mph  0.00"  18%  26%  20°F  30°F  30.00"
Fri 03:00 AM  71.1°F  68°F  3 mph SW  2 mph  7 mph  0.00"  17%  25%  22°F  30°F  30.00"
Fri 02:00 AM  76.0°F  69°F  5 mph NW  3 mph  16 mph  0.00"  16%  25%  25°F  31°F  29.99"
Fri 01:00 AM  76.7°F  70°F  7 mph NW  3 mph  12 mph  0.00"  17%  25%  28°F  31°F  29.99"
Fri 12:00 AM  77.7°F  71°F  4 mph NW  3 mph  10 mph  0.00"  18%  24%  30°F  31°F  30.01"
Thu 11:00 PM  75.7°F  72°F  4 mph W  3 mph  8 mph  0.00"  19%  25%  29°F  32°F  30.02"
Thu 10:00 PM  76.2°F  73°F  1 mph SW  2 mph  7 mph  0.00"  27%  24%  39°F  33°F  30.02"
Thu 09:00 PM  82.1°F  75°F  calm  2 mph  13 mph  0.00"  17%  22%  31°F  33°F  29.99"
Thu 08:00 PM  84.5°F  80°F  8 mph NW  4 mph  19 mph  0.00"  19%  19%  36°F  33°F  29.98"
Thu 07:00 PM  91.1°F  84°F  8 mph NW  6 mph  17 mph  0.00"  11%  15%  27°F  30°F  29.96"
Thu 06:00 PM  94.6°F  87°F  11 mph N  5 mph  16 mph  0.00"  6%  12%  16°F  27°F  29.96"
Thu 05:00 PM  96.1°F  89°F  calm  4 mph  22 mph  0.00"  8%  11%  23°F  26°F  29.96"
Thu 04:00 PM  96.6°F  89°F  calm  5 mph  13 mph  0.00"  7%  11%  21°F  26°F  29.97"
Thu 03:00 PM  97.0°F  90°F  calm  4 mph  2 mph  0.00"  5%  10%  14°F  23°F  29.98"
Thu 02:00 PM  96.2°F  89°F  calm  4 mph  none  0.00"  6%  10%  15°F  24°F  29.99"
Thu 01:00 PM  95.2°F  88°F  calm  4 mph  none  0.00"  6%  11%  15°F  24°F  30.01"
Thu 12:00 PM  94.7°F  87°F  calm  3 mph  none  0.00"  6%  12%  17°F  25°F  30.01"
Thu 11:00 AM  92.4°F  84°F  calm  3 mph  none  0.00"  8%  14%  20°F  27°F  30.02"
Thu 10:00 AM  90.9°F  82°F  calm  3 mph  none  0.00"  9%  15%  23°F  28°F  30.01"
Thu 09:00 AM  86.4°F  79°F  calm  3 mph  none  0.00"  12%  17%  26°F  30°F  30.02"
Thu 08:00 AM  81.8°F  77°F  calm  3 mph  9 mph  0.00"  14%  20%  27°F  31°F  30.02"
Thu 07:00 AM  79.2°F  71°F  calm  2 mph  3 mph  0.00"  16%  24%  27°F  32°F  30.02"
Thu 06:00 AM  72.9°F  66°F  2 mph SW  2 mph  6 mph  0.00"  19%  27%  27°F  30°F  30.01"
Thu 05:00 AM  70.4°F  66°F  3 mph SW  2 mph  5 mph  0.00"  22%  27%  28°F  30°F  30.01"
Thu 04:00 AM  69.6°F  67°F  3 mph SW  2 mph  5 mph  0.00"  24%  27%  30°F  30°F  30.01"
Thu 03:00 AM  70.1°F  67°F  2 mph SW  2 mph  5 mph  0.00"  25%  26%  31°F  30°F  30.02"
Thu 02:00 AM  70.8°F  68°F  1 mph SW  3 mph  4 mph  0.00"  23%  26%  30°F  31°F  30.02"
Thu 01:00 AM  70.4°F  69°F  2 mph SW  3 mph  5 mph  0.00"  23%  26%  29°F  31°F  30.01"
Thu 12:00 AM  75.3°F  70°F  2 mph SW  3 mph  6 mph  0.00"  19%  25%  29°F  32°F  30.02"
Wed 11:00 PM  71.5°F  70°F  2 mph SW  3 mph  4 mph  0.00"  24%  26%  32°F  33°F  30.02"
Wed 10:00 PM  78.4°F  72°F  calm  2 mph  6 mph  0.00"  18%  24%  29°F  33°F  30.02"
Wed 09:00 PM  80.3°F  75°F  2 mph SW  2 mph  6 mph  0.00"  16%  23%  29°F  33°F  30.00"
Wed 08:00 PM  86.7°F  79°F  3 mph SW  4 mph  12 mph  0.00"  12%  19%  26°F  32°F  29.99"

  1. Current weather data. No green row appears if the current weather data is also the high or low for the current day.
  2. High temperature for the current day.
  3. Low temperature for the current day.

The Pinon Hills, California weather pages are a service of WeatherCurrents.
Copyright ©Fri Jun 22 07:56:19 PDT 2018  WeatherCurrents. All rights reserved. - Submit questions and comments - Privacy Policy

This page automatically refreshes every 10 minutes.